CDT,Max TemperatureF,Mean TemperatureF,Min TemperatureF,Max Dew PointF,MeanDew PointF,Min DewpointF,Max Humidity, Mean Humidity, Min Humidity, Max Sea Level PressureIn, Mean Sea Level PressureIn, Min Sea Level PressureIn, Max VisibilityMiles, Mean VisibilityMiles, Min VisibilityMiles, Max Wind SpeedMPH, Mean Wind SpeedMPH, Max Gust SpeedMPH,PrecipitationIn, CloudCover, Events, WindDirDegrees
2012-3-1,67,52,36,37,30,28,82,53,24,29.95,29.83,29.66,10,10,10,13,7,16,0.00,0,,204
2012-3-2,80,58,36,63,51,29,84,65,46,29.88,29.55,29.34,10,9,1,46,17,59,0.33,4,Rain-Thunderstorm,233
2012-3-3,53,41,29,32,24,18,92,60,28,29.97,29.92,29.86,10,10,10,22,9,26,0.00,0,,272
2012-3-4,55,41,27,32,25,20,85,59,32,30.00,29.94,29.85,10,10,10,29,9,38,0.01,4,,258
2012-3-5,49,41,33,29,23,21,67,51,34,30.48,30.35,30.04,10,10,10,26,8,37,0.00,2,,354
2012-3-6,70,53,35,33,26,21,59,41,22,30.35,30.25,30.16,10,10,10,21,11,29,0.00,0,,177
2012-3-7,72,62,51,52,42,27,58,44,30,30.25,30.16,30.06,10,10,10,22,13,35,0.00,3,,181
2012-3-8,68,53,37,57,47,32,100,78,55,30.40,30.14,29.99,10,6,1,25,12,35,1.51,7,Rain-Thunderstorm,347
2012-3-9,60,48,35,31,26,19,82,53,24,30.50,30.46,30.41,10,10,10,23,9,29,0.00,0,,13
2012-3-10,61,46,31,28,25,22,78,51,23,30.51,30.40,30.29,10,10,10,12,5,18,0.00,0,,93
2012-3-11,65,52,38,55,42,28,93,68,42,30.31,30.20,30.05,10,10,6,20,11,25,0.13,5,Rain,149
2012-3-12,75,68,60,61,58,55,90,72,53,30.06,30.01,29.95,10,10,5,25,12,33,0.03,5,Rain,195
2012-3-13,77,67,56,61,58,55,97,74,50,30.14,30.09,30.04,10,8,2,12,5,17,0.00,2,,221
2012-3-14,82,71,59,64,59,54,87,69,51,30.16,30.10,30.04,10,10,8,18,7,23,0.00,1,,200
2012-3-15,75,68,60,63,60,55,93,77,60,30.20,30.13,30.06,10,9,2,23,6,31,0.41,2,Rain-Thunderstorm,205
2012-3-16,75,65,55,62,58,55,100,82,64,30.14,30.09,30.04,10,9,4,16,6,20,0.48,4,Rain-Thunderstorm,227
2012-3-17,77,67,56,64,59,56,93,74,54,30.13,30.08,30.04,10,10,10,17,5,22,T,2,Rain-Thunderstorm,203
2012-3-18,80,69,57,63,59,55,93,74,54,30.15,30.07,30.02,10,10,9,16,6,22,0.00,1,,196
2012-3-19,81,74,66,62,55,49,73,53,33,30.07,29.99,29.92,10,10,10,18,9,25,0.00,0,,167
2012-3-20,83,73,63,56,54,52,78,56,34,30.02,29.96,29.90,10,10,10,23,10,30,0.00,0,,153
2012-3-21,80,72,64,58,56,53,68,57,45,30.04,29.98,29.93,10,10,10,22,11,28,0.00,1,,143
2012-3-22,71,64,57,63,59,55,100,79,57,30.08,30.00,29.96,10,7,0,16,5,23,0.90,7,Fog-Rain,172
2012-3-23,69,60,50,61,55,44,100,74,48,29.98,29.90,29.81,10,7,0,25,9,32,0.12,5,Fog-Rain,204
2012-3-24,67,58,49,52,50,47,93,79,60,29.91,29.87,29.82,10,9,2,14,6,18,0.07,5,Rain,265
2012-3-25,69,60,50,56,53,49,100,81,61,30.05,29.99,29.91,10,8,4,17,6,21,T,3,Rain,322
2012-3-26,77,62,47,57,50,45,100,73,46,30.17,30.10,30.04,10,6,0,13,5,16,0.00,0,Fog,73
2012-3-27,78,64,50,54,48,37,68,53,38,30.15,30.07,30.00,10,10,10,17,7,,0.00,0,,159
2012-3-28,82,70,58,60,54,50,84,61,37,30.04,29.98,29.93,10,10,8,20,8,26,0.00,0,,231
2012-3-29,81,69,57,59,55,52,93,66,39,29.98,29.92,29.85,10,10,6,13,5,17,0.00,3,,198
2012-3-30,77,68,59,60,59,55,90,74,58,29.87,29.81,29.74,10,10,6,20,8,25,0.00,1,,213
2012-3-31,80,69,57,61,59,55,100,74,48,29.88,29.84,29.79,10,6,1,8,3,12,0.00,2,,99